Time;durP1;ratioP1;P1;durP2;ratioP2;P2;SDS_P1;SDS_P2;PMS_P1;PMS_P2;Temp;Humidity;BMP_temperature;BMP_pressure;BME280_temperature;BME280_humidity;BME280_pressure;Samples;Min_cycle;Max_cycle;Signal;HPM_P1;HPM_P2
2021/04/09 00:04:11;;;;;;;12.35;7.70;;;;;;;;;;10003296;29;20082;-61
2021/04/09 00:09:09;;;;;;;7.57;6.57;;;;;;;;;;10003251;29;20078;-61
2021/04/09 00:14:07;;;;;;;22.50;13.57;;;;;;;;;;10000989;29;20083;-62
2021/04/09 00:19:06;;;;;;;11.98;8.88;;;;;;;;;;10001259;29;20052;-59
2021/04/09 00:24:04;;;;;;;11.18;6.03;;;;;;;;;;10002532;29;20082;-60
2021/04/09 00:29:01;;;;;;;6.53;5.10;;;;;;;;;;10002676;29;20090;-59
2021/04/09 00:33:59;;;;;;;9.93;6.57;;;;;;;;;;10002446;29;20076;-59
2021/04/09 00:38:57;;;;;;;8.57;6.82;;;;;;;;;;10002366;29;20079;-58
2021/04/09 00:43:57;;;;;;;13.20;8.43;;;;;;;;;;10001343;29;20087;-60
2021/04/09 00:48:55;;;;;;;12.15;9.68;;;;;;;;;;10001605;29;20082;-60
2021/04/09 00:53:53;;;;;;;12.50;8.27;;;;;;;;;;9999671;29;20063;-60
2021/04/09 00:58:51;;;;;;;11.75;7.28;;;;;;;;;;10001575;29;20059;-60
2021/04/09 01:03:49;;;;;;;8.77;5.78;;;;;;;;;;10000951;29;20123;-61
2021/04/09 01:08:46;;;;;;;8.45;5.13;;;;;;;;;;9999792;29;20079;-61
2021/04/09 01:13:45;;;;;;;8.50;5.50;;;;;;;;;;10001214;29;20083;-60
2021/04/09 01:18:49;;;;;;;13.10;7.68;;;;;;;;;;10000369;29;20079;-60
2021/04/09 01:23:54;;;;;;;8.35;5.95;;;;;;;;;;10001026;29;20079;-61
2021/04/09 01:28:59;;;;;;;9.77;6.97;;;;;;;;;;9998823;29;20060;-60
2021/04/09 01:33:58;;;;;;;19.98;13.25;;;;;;;;;;10000148;29;20514;-60
2021/04/09 01:38:57;;;;;;;9.70;6.47;;;;;;;;;;10000470;29;20075;-60
2021/04/09 01:43:58;;;;;;;12.60;7.47;;;;;;;;;;10000258;29;20076;-60
2021/04/09 01:48:56;;;;;;;10.60;7.90;;;;;;;;;;10000126;29;20052;-62
2021/04/09 01:53:54;;;;;;;12.27;7.07;;;;;;;;;;9999976;29;20079;-61
2021/04/09 01:58:53;;;;;;;9.13;6.30;;;;;;;;;;9999496;29;20060;-61
2021/04/09 02:03:53;;;;;;;9.50;8.07;;;;;;;;;;9999791;29;20048;-61
2021/04/09 02:08:52;;;;;;;11.93;6.97;;;;;;;;;;9999865;29;20076;-61
2021/04/09 02:13:50;;;;;;;8.10;6.32;;;;;;;;;;9999437;29;20076;-60
2021/04/09 02:18:48;;;;;;;10.30;6.70;;;;;;;;;;9999488;29;20075;-61
2021/04/09 02:23:45;;;;;;;8.68;6.75;;;;;;;;;;9999509;29;20052;-59
2021/04/09 02:28:42;;;;;;;8.73;7.30;;;;;;;;;;9998940;29;20530;-60
2021/04/09 02:33:42;;;;;;;11.05;7.18;;;;;;;;;;9998677;29;20524;-60
2021/04/09 02:38:41;;;;;;;12.75;8.43;;;;;;;;;;9998408;29;20088;-61
2021/04/09 02:43:39;;;;;;;9.05;7.50;;;;;;;;;;9998385;29;20098;-59
2021/04/09 02:48:38;;;;;;;17.30;10.18;;;;;;;;;;9998573;29;20130;-60
2021/04/09 02:53:38;;;;;;;9.73;7.20;;;;;;;;;;9998075;29;20087;-60
2021/04/09 02:58:37;;;;;;;20.20;10.48;;;;;;;;;;9998297;29;20048;-60
2021/04/09 03:03:37;;;;;;;16.27;11.13;;;;;;;;;;9998553;29;20083;-60
2021/04/09 03:08:35;;;;;;;21.20;13.82;;;;;;;;;;10002925;29;20473;-60
2021/04/09 03:13:33;;;;;;;19.77;12.40;;;;;;;;;;10002965;29;20083;-60
2021/04/09 03:18:33;;;;;;;20.05;13.43;;;;;;;;;;10003518;29;20119;-61
2021/04/09 03:23:31;;;;;;;15.50;9.73;;;;;;;;;;10001501;29;20484;-60
2021/04/09 03:28:28;;;;;;;10.48;8.68;;;;;;;;;;10000992;29;20545;-61
2021/04/09 03:33:26;;;;;;;10.77;8.68;;;;;;;;;;10004971;29;20647;-59
2021/04/09 03:38:23;;;;;;;10.77;8.82;;;;;;;;;;10004669;29;20076;-59
2021/04/09 03:43:21;;;;;;;13.23;9.20;;;;;;;;;;10004386;29;20071;-60
2021/04/09 03:48:18;;;;;;;22.20;12.40;;;;;;;;;;10001477;29;20094;-60
2021/04/09 03:53:17;;;;;;;19.27;12.50;;;;;;;;;;10000315;29;20079;-59
2021/04/09 03:58:14;;;;;;;19.27;13.15;;;;;;;;;;9999690;29;20079;-60
2021/04/09 04:03:11;;;;;;;18.73;11.07;;;;;;;;;;10001085;29;20083;-60
2021/04/09 04:08:09;;;;;;;13.10;10.00;;;;;;;;;;10003034;29;20048;-60
2021/04/09 04:13:07;;;;;;;14.23;9.00;;;;;;;;;;10002935;29;20473;-61
2021/04/09 04:18:04;;;;;;;18.55;14.07;;;;;;;;;;10002626;29;20075;-60
2021/04/09 04:23:01;;;;;;;15.70;10.25;;;;;;;;;;10003057;29;20067;-61
2021/04/09 04:27:59;;;;;;;14.10;9.68;;;;;;;;;;10002674;29;20052;-60
2021/04/09 04:32:57;;;;;;;15.50;8.82;;;;;;;;;;10002389;29;20427;-60
2021/04/09 04:37:54;;;;;;;17.25;11.18;;;;;;;;;;10002057;29;20087;-62
2021/04/09 04:42:52;;;;;;;18.70;14.40;;;;;;;;;;10001828;29;20518;-60
2021/04/09 04:47:49;;;;;;;35.25;21.08;;;;;;;;;;10001964;29;20071;-60
2021/04/09 04:52:47;;;;;;;26.48;16.80;;;;;;;;;;10001717;29;20493;-60
2021/04/09 04:57:45;;;;;;;25.33;11.63;;;;;;;;;;9996376;29;20084;-61
2021/04/09 05:02:42;;;;;;;18.15;11.95;;;;;;;;;;9996402;29;20083;-60
2021/04/09 05:07:40;;;;;;;15.80;12.30;;;;;;;;;;9996968;29;20473;-60
2021/04/09 05:12:38;;;;;;;17.13;8.80;;;;;;;;;;9997685;29;20078;-60
2021/04/09 05:17:35;;;;;;;15.88;9.75;;;;;;;;;;10000636;29;20062;-60
2021/04/09 05:22:33;;;;;;;22.70;11.48;;;;;;;;;;10000750;29;20079;-57
2021/04/09 05:27:30;;;;;;;16.73;13.77;;;;;;;;;;10000042;29;20048;-58
2021/04/09 05:32:28;;;;;;;12.27;7.88;;;;;;;;;;9999282;29;20075;-60
2021/04/09 05:37:26;;;;;;;12.15;7.03;;;;;;;;;;9999496;29;20052;-62
2021/04/09 05:42:23;;;;;;;10.00;8.48;;;;;;;;;;9999990;29;20079;-60
2021/04/09 05:47:20;;;;;;;14.45;8.93;;;;;;;;;;9997694;29;20059;-60
2021/04/09 05:52:19;;;;;;;27.95;15.82;;;;;;;;;;9999528;29;20098;-60
2021/04/09 05:57:16;;;;;;;11.63;9.18;;;;;;;;;;9998869;29;20056;-58
2021/04/09 06:02:13;;;;;;;10.68;7.85;;;;;;;;;;9999440;29;20068;-59
2021/04/09 06:07:11;;;;;;;11.43;8.95;;;;;;;;;;9999319;29;20044;-60
2021/04/09 06:12:10;;;;;;;19.05;10.50;;;;;;;;;;9998774;29;20533;-59
2021/04/09 06:17:07;;;;;;;12.32;9.38;;;;;;;;;;9998396;29;20095;-60
2021/04/09 06:22:05;;;;;;;13.10;10.48;;;;;;;;;;9998941;29;20084;-59
2021/04/09 06:27:03;;;;;;;18.60;11.80;;;;;;;;;;9999113;29;20095;-59
2021/04/09 06:32:01;;;;;;;13.18;8.73;;;;;;;;;;9998687;29;20095;-59
2021/04/09 06:36:58;;;;;;;10.48;8.38;;;;;;;;;;9998332;29;20124;-56
2021/04/09 06:41:56;;;;;;;12.32;8.57;;;;;;;;;;10000251;29;20094;-57
2021/04/09 06:46:53;;;;;;;19.73;14.27;;;;;;;;;;10006327;29;20087;-56
2021/04/09 06:51:51;;;;;;;15.27;9.65;;;;;;;;;;10005383;29;20055;-58
2021/04/09 06:56:49;;;;;;;12.27;9.48;;;;;;;;;;10005551;29;20048;-58
2021/04/09 07:01:47;;;;;;;29.67;18.67;;;;;;;;;;10004416;29;20063;-58
2021/04/09 07:06:45;;;;;;;16.80;9.52;;;;;;;;;;10005051;29;20048;-56
2021/04/09 07:11:49;;;;;;;14.30;10.30;;;;;;;;;;10005286;29;20084;-57
2021/04/09 07:16:56;;;;;;;14.03;9.60;;;;;;;;;;10006140;29;20308;-59
2021/04/09 07:22:00;;;;;;;16.42;10.98;;;;;;;;;;10005529;29;20072;-56
2021/04/09 07:26:59;;;;;;;15.73;9.45;;;;;;;;;;10004685;29;20492;-53
2021/04/09 07:31:56;;;;;;;12.32;8.77;;;;;;;;;;10035064;29;20071;-57
2021/04/09 07:36:54;;;;;;;11.80;9.35;;;;;;;;;;10042105;29;20055;-55
2021/04/09 07:42:05;;;;;;;15.95;9.13;;;;;;;;;;10043107;29;20075;-58
2021/04/09 07:47:09;;;;;;;42.65;24.30;;;;;;;;;;10042878;29;20478;-57
2021/04/09 07:52:10;;;;;;;12.07;8.70;;;;;;;;;;10042242;29;20489;-58
2021/04/09 07:57:08;;;;;;;11.10;8.73;;;;;;;;;;10040645;29;20052;-59
2021/04/09 08:02:06;;;;;;;13.38;9.32;;;;;;;;;;10042286;29;20087;-60
2021/04/09 08:07:03;;;;;;;18.75;9.90;;;;;;;;;;10041715;29;20083;-61
2021/04/09 08:12:01;;;;;;;15.15;9.13;;;;;;;;;;10042300;29;20075;-61
2021/04/09 08:17:10;;;;;;;16.42;8.75;;;;;;;;;;10041543;29;20509;-61
2021/04/09 08:22:07;;;;;;;12.25;8.23;;;;;;;;;;10041473;29;20501;-58
2021/04/09 08:27:06;;;;;;;13.82;8.20;;;;;;;;;;10041088;29;20079;-59
2021/04/09 08:32:04;;;;;;;16.40;8.43;;;;;;;;;;10040718;29;20103;-58
2021/04/09 08:37:02;;;;;;;14.35;7.93;;;;;;;;;;10040183;29;20075;-59
2021/04/09 08:42:15;;;;;;;15.82;7.72;;;;;;;;;;10040865;29;20075;-59
2021/04/09 08:47:16;;;;;;;14.13;8.43;;;;;;;;;;10039696;29;20051;-59
2021/04/09 08:52:16;;;;;;;13.73;7.53;;;;;;;;;;10038958;29;20082;-59
2021/04/09 08:57:25;;;;;;;48.25;24.55;;;;;;;;;;10035306;29;20160;-60
2021/04/09 09:02:25;;;;;;;14.10;7.72;;;;;;;;;;10036139;29;20498;-60
2021/04/09 09:07:38;;;;;;;13.07;6.93;;;;;;;;;;10035012;29;20322;-59
2021/04/09 09:12:35;;;;;;;15.55;7.55;;;;;;;;;;10039443;29;20469;-58
2021/04/09 09:17:39;;;;;;;14.95;7.60;;;;;;;;;;10039171;29;20433;-58
2021/04/09 09:22:46;;;;;;;14.32;6.43;;;;;;;;;;10040067;29;20051;-58
2021/04/09 09:27:46;;;;;;;21.30;7.95;;;;;;;;;;10039233;29;20126;-57
2021/04/09 09:32:45;;;;;;;17.30;8.00;;;;;;;;;;10038333;29;20083;-57
2021/04/09 09:37:45;;;;;;;15.95;7.22;;;;;;;;;;10036646;29;20070;-58
2021/04/09 09:42:46;;;;;;;14.15;9.15;;;;;;;;;;10038243;29;20288;-57
2021/04/09 09:47:45;;;;;;;19.75;7.45;;;;;;;;;;10036590;29;20055;-58
2021/04/09 09:52:43;;;;;;;11.85;4.85;;;;;;;;;;10037546;29;20539;-56
2021/04/09 09:57:45;;;;;;;7.10;5.25;;;;;;;;;;10038029;29;20071;-57
2021/04/09 10:02:43;;;;;;;9.65;4.55;;;;;;;;;;10038088;29;20083;-59
2021/04/09 10:07:41;;;;;;;11.32;5.82;;;;;;;;;;10037334;29;20047;-56
2021/04/09 10:12:41;;;;;;;4.78;4.13;;;;;;;;;;10037739;29;20086;-58
2021/04/09 10:17:40;;;;;;;8.32;5.47;;;;;;;;;;10037392;29;20051;-58
2021/04/09 10:22:37;;;;;;;7.72;4.57;;;;;;;;;;10036959;29;20047;-55
2021/04/09 10:27:42;;;;;;;4.57;3.13;;;;;;;;;;10036835;29;20055;-57
2021/04/09 10:32:51;;;;;;;7.60;5.82;;;;;;;;;;10036845;29;20080;-57
2021/04/09 10:37:49;;;;;;;5.68;4.13;;;;;;;;;;10037322;29;20052;-59
2021/04/09 10:42:59;;;;;;;5.70;5.10;;;;;;;;;;10036563;29;20078;-58
2021/04/09 10:47:58;;;;;;;9.23;6.30;;;;;;;;;;10037048;29;20077;-58
2021/04/09 10:52:56;;;;;;;15.23;10.35;;;;;;;;;;10036817;29;20094;-57
2021/04/09 10:57:54;;;;;;;7.80;5.97;;;;;;;;;;10035969;29;20059;-58
2021/04/09 11:02:55;;;;;;;10.82;7.95;;;;;;;;;;10036703;29;20509;-57
2021/04/09 11:07:52;;;;;;;6.13;4.68;;;;;;;;;;10036645;29;20079;-58
2021/04/09 11:13:05;;;;;;;12.02;5.88;;;;;;;;;;10036388;29;20111;-58
2021/04/09 11:18:05;;;;;;;10.35;5.72;;;;;;;;;;10036209;29;20072;-59
2021/04/09 11:23:03;;;;;;;5.63;4.25;;;;;;;;;;10036464;29;20051;-57
2021/04/09 11:28:01;;;;;;;8.20;4.38;;;;;;;;;;10037840;29;20056;-58
2021/04/09 11:32:58;;;;;;;5.40;4.70;;;;;;;;;;10043299;29;20071;-59
2021/04/09 11:37:57;;;;;;;7.97;6.13;;;;;;;;;;10042606;29;20044;-60
2021/04/09 11:42:54;;;;;;;7.60;6.60;;;;;;;;;;10042452;29;20079;-59
2021/04/09 11:47:51;;;;;;;6.53;4.75;;;;;;;;;;10042789;29;20071;-60
2021/04/09 11:52:50;;;;;;;6.80;4.80;;;;;;;;;;10042296;29;20080;-59
2021/04/09 11:57:50;;;;;;;9.18;6.07;;;;;;;;;;10042387;29;20048;-60
2021/04/09 12:02:51;;;;;;;5.93;5.00;;;;;;;;;;10042128;29;20413;-59
2021/04/09 12:07:49;;;;;;;30.35;22.00;;;;;;;;;;10041915;29;20047;-59
2021/04/09 12:12:47;;;;;;;9.18;5.65;;;;;;;;;;10041949;29;20110;-61
2021/04/09 12:17:47;;;;;;;13.80;7.90;;;;;;;;;;10041697;29;20071;-60
2021/04/09 12:22:45;;;;;;;8.52;4.90;;;;;;;;;;10042196;29;20067;-57
2021/04/09 12:27:42;;;;;;;6.20;5.15;;;;;;;;;;10041109;29;20078;-59
2021/04/09 12:32:40;;;;;;;8.20;7.07;;;;;;;;;;10041157;29;20110;-58
2021/04/09 12:37:38;;;;;;;7.55;4.85;;;;;;;;;;10041000;29;20078;-59
2021/04/09 12:42:35;;;;;;;6.82;5.50;;;;;;;;;;10038289;29;20056;-59
2021/04/09 12:47:33;;;;;;;10.10;7.10;;;;;;;;;;10040597;29;20051;-58
2021/04/09 12:52:31;;;;;;;8.65;6.15;;;;;;;;;;10039885;29;20087;-58
2021/04/09 12:57:29;;;;;;;9.05;5.72;;;;;;;;;;10039900;29;20504;-60
2021/04/09 13:02:26;;;;;;;8.07;5.82;;;;;;;;;;10040005;29;20048;-59
2021/04/09 13:07:23;;;;;;;11.73;6.32;;;;;;;;;;10039951;29;20075;-58
2021/04/09 13:12:21;;;;;;;8.65;6.63;;;;;;;;;;10039606;29;20052;-59
2021/04/09 13:17:19;;;;;;;8.00;6.75;;;;;;;;;;10039485;29;20107;-59
2021/04/09 13:22:16;;;;;;;8.88;5.13;;;;;;;;;;10039292;29;20079;-58
2021/04/09 13:27:15;;;;;;;9.55;5.75;;;;;;;;;;10038935;29;20043;-58
2021/04/09 13:32:12;;;;;;;10.18;4.82;;;;;;;;;;10038669;29;20075;-59
2021/04/09 13:37:11;;;;;;;5.55;4.53;;;;;;;;;;10038572;29;20075;-56
2021/04/09 13:42:08;;;;;;;13.05;5.72;;;;;;;;;;10037175;29;20413;-57
2021/04/09 13:47:06;;;;;;;14.80;11.88;;;;;;;;;;10038383;29;20051;-60
2021/04/09 13:52:03;;;;;;;7.30;5.55;;;;;;;;;;10037375;29;20048;-60
2021/04/09 13:57:01;;;;;;;8.10;5.50;;;;;;;;;;10037906;29;20515;-60
2021/04/09 14:02:00;;;;;;;10.20;6.78;;;;;;;;;;10037407;29;20047;-61
2021/04/09 14:06:58;;;;;;;6.60;5.50;;;;;;;;;;10037765;29;20338;-60
2021/04/09 14:11:55;;;;;;;8.40;6.10;;;;;;;;;;10037524;29;20044;-61
2021/04/09 14:16:53;;;;;;;7.15;5.90;;;;;;;;;;10037316;29;20339;-61
2021/04/09 14:21:51;;;;;;;18.00;10.23;;;;;;;;;;10037307;29;20086;-61
2021/04/09 14:26:49;;;;;;;21.88;17.30;;;;;;;;;;10036770;29;20090;-61
2021/04/09 14:31:46;;;;;;;6.32;5.72;;;;;;;;;;10019190;29;20457;-61
2021/04/09 14:36:45;;;;;;;12.75;8.95;;;;;;;;;;10006365;29;20064;-61
2021/04/09 14:41:42;;;;;;;10.30;5.68;;;;;;;;;;10011140;29;20072;-60
2021/04/09 14:46:40;;;;;;;11.18;9.07;;;;;;;;;;10012757;29;20462;-60
2021/04/09 14:51:37;;;;;;;10.98;5.63;;;;;;;;;;9999665;29;20059;-61
2021/04/09 14:56:35;;;;;;;6.88;5.40;;;;;;;;;;9997518;29;20502;-61
2021/04/09 15:01:33;;;;;;;8.40;6.85;;;;;;;;;;9997764;29;20048;-60
2021/04/09 15:06:31;;;;;;;8.75;6.63;;;;;;;;;;10005312;29;20068;-61
2021/04/09 15:11:28;;;;;;;48.45;7.80;;;;;;;;;;10004990;29;20072;-61
2021/04/09 15:16:26;;;;;;;5.93;4.53;;;;;;;;;;10004644;29;20088;-61
2021/04/09 15:21:26;;;;;;;109.30;46.97;;;;;;;;;;10002837;29;20055;-60
2021/04/09 15:26:24;;;;;;;13.82;6.00;;;;;;;;;;10004407;29;20481;-61
2021/04/09 15:31:21;;;;;;;13.23;9.98;;;;;;;;;;10003911;29;20091;-61
2021/04/09 15:36:19;;;;;;;8.32;6.18;;;;;;;;;;10004054;29;20072;-60
2021/04/09 15:41:17;;;;;;;19.08;13.75;;;;;;;;;;10003991;29;20076;-60
2021/04/09 15:46:14;;;;;;;11.13;8.65;;;;;;;;;;10004044;29;20114;-61
2021/04/09 15:51:11;;;;;;;19.15;14.65;;;;;;;;;;10003357;29;20056;-61
2021/04/09 15:56:10;;;;;;;16.52;9.63;;;;;;;;;;10002937;29;20087;-59
2021/04/09 16:01:07;;;;;;;10.98;8.25;;;;;;;;;;10002664;29;20076;-60
2021/04/09 16:06:04;;;;;;;25.30;16.65;;;;;;;;;;10003014;29;20044;-61
2021/04/09 16:11:02;;;;;;;10.45;7.20;;;;;;;;;;10003032;29;20071;-61
2021/04/09 16:16:00;;;;;;;11.60;8.10;;;;;;;;;;10001672;29;20079;-61
2021/04/09 16:20:57;;;;;;;9.25;8.15;;;;;;;;;;10002469;29;20413;-61
2021/04/09 16:25:55;;;;;;;22.67;16.42;;;;;;;;;;10001927;29;20076;-60
2021/04/09 16:30:57;;;;;;;21.58;15.48;;;;;;;;;;10002239;29;20190;-60
2021/04/09 16:35:55;;;;;;;15.25;10.80;;;;;;;;;;10002219;29;20076;-61
2021/04/09 16:40:52;;;;;;;46.22;32.97;;;;;;;;;;10000816;29;20072;-60
2021/04/09 16:45:50;;;;;;;55.92;40.65;;;;;;;;;;10001456;29;20548;-58
2021/04/09 16:50:48;;;;;;;46.42;32.75;;;;;;;;;;10001984;29;20426;-62
2021/04/09 16:55:46;;;;;;;62.97;47.70;;;;;;;;;;10001383;29;20521;-61
2021/04/09 17:00:44;;;;;;;135.55;96.88;;;;;;;;;;10000750;29;20070;-61
2021/04/09 17:05:43;;;;;;;73.60;49.70;;;;;;;;;;10000604;29;20052;-58
2021/04/09 17:10:40;;;;;;;113.30;77.80;;;;;;;;;;10000035;29;20040;-60
2021/04/09 17:15:38;;;;;;;84.78;65.10;;;;;;;;;;9996409;29;20087;-60
2021/04/09 17:20:36;;;;;;;69.57;53.72;;;;;;;;;;10004498;29;20071;-58
2021/04/09 17:25:33;;;;;;;49.17;36.65;;;;;;;;;;10012813;29;20059;-59
2021/04/09 17:30:31;;;;;;;35.60;24.67;;;;;;;;;;10036603;29;20173;-59
2021/04/09 17:35:29;;;;;;;29.05;23.67;;;;;;;;;;10038205;29;20094;-60
2021/04/09 17:40:27;;;;;;;28.85;22.55;;;;;;;;;;10038192;29;20082;-60
2021/04/09 17:45:25;;;;;;;31.73;22.92;;;;;;;;;;10038399;29;20062;-61
2021/04/09 17:50:22;;;;;;;28.85;19.55;;;;;;;;;;10038391;29;20048;-60
2021/04/09 17:55:20;;;;;;;14.27;12.13;;;;;;;;;;10036067;29;20087;-61
2021/04/09 18:00:19;;;;;;;35.00;23.75;;;;;;;;;;10038019;29;20056;-57
2021/04/09 18:05:19;;;;;;;21.88;17.13;;;;;;;;;;10037802;29;20059;-61
2021/04/09 18:10:16;;;;;;;37.53;28.60;;;;;;;;;;10037694;29;20096;-60
2021/04/09 18:15:16;;;;;;;38.97;30.48;;;;;;;;;;10037488;29;20082;-59
2021/04/09 18:20:14;;;;;;;16.10;11.68;;;;;;;;;;10037758;29;20105;-60
2021/04/09 18:25:12;;;;;;;14.18;9.85;;;;;;;;;;10036138;29;20411;-61
2021/04/09 18:30:13;;;;;;;18.88;11.57;;;;;;;;;;10034183;29;20047;-58
2021/04/09 18:35:14;;;;;;;18.33;12.73;;;;;;;;;;10024607;29;20087;-60
2021/04/09 18:40:12;;;;;;;62.15;43.28;;;;;;;;;;10012691;29;20091;-59
2021/04/09 18:45:11;;;;;;;20.67;14.15;;;;;;;;;;10024192;29;20082;-61
2021/04/09 18:50:09;;;;;;;365.83;334.38;;;;;;;;;;10020776;29;20079;-59
2021/04/09 18:55:07;;;;;;;116.38;105.82;;;;;;;;;;10026937;29;20102;-60
2021/04/09 19:00:06;;;;;;;27.48;21.02;;;;;;;;;;10005142;29;20080;-61
2021/04/09 19:05:05;;;;;;;71.63;32.13;;;;;;;;;;10006312;29;20498;-59
2021/04/09 19:10:03;;;;;;;24.90;14.57;;;;;;;;;;10006211;29;20082;-60
2021/04/09 19:15:01;;;;;;;38.75;21.77;;;;;;;;;;10003701;29;20080;-61
2021/04/09 19:19:59;;;;;;;29.10;19.75;;;;;;;;;;10004464;29;20087;-60
2021/04/09 19:25:01;;;;;;;45.95;21.80;;;;;;;;;;10005241;29;20068;-60
2021/04/09 19:29:59;;;;;;;18.73;14.95;;;;;;;;;;10004097;29;20076;-60
2021/04/09 19:34:58;;;;;;;42.05;25.27;;;;;;;;;;10003941;29;20091;-60
2021/04/09 19:39:55;;;;;;;9.93;6.15;;;;;;;;;;10004413;29;20075;-60
2021/04/09 19:44:54;;;;;;;24.83;16.00;;;;;;;;;;10004298;29;20163;-61
2021/04/09 19:49:51;;;;;;;60.20;29.08;;;;;;;;;;10004092;29;20430;-61
2021/04/09 19:54:51;;;;;;;121.88;54.60;;;;;;;;;;10003902;29;20511;-61
2021/04/09 19:59:48;;;;;;;33.15;14.45;;;;;;;;;;10003988;29;20078;-62
2021/04/09 20:04:45;;;;;;;15.10;8.77;;;;;;;;;;10002656;29;20087;-61
2021/04/09 20:09:43;;;;;;;12.63;7.68;;;;;;;;;;10003885;29;20075;-61
2021/04/09 20:14:41;;;;;;;10.18;9.15;;;;;;;;;;10002885;29;20090;-61
2021/04/09 20:19:39;;;;;;;10.65;9.57;;;;;;;;;;10001943;29;20106;-61
2021/04/09 20:24:36;;;;;;;16.13;9.65;;;;;;;;;;10002680;29;20059;-60
2021/04/09 20:29:33;;;;;;;9.82;8.82;;;;;;;;;;10002456;29;20091;-59
2021/04/09 20:34:32;;;;;;;9.50;6.60;;;;;;;;;;10002906;29;20079;-58
2021/04/09 20:39:31;;;;;;;8.45;6.20;;;;;;;;;;10000077;29;20052;-61
2021/04/09 20:44:28;;;;;;;8.45;7.63;;;;;;;;;;10000439;29;20048;-60
2021/04/09 20:49:26;;;;;;;7.28;6.57;;;;;;;;;;10002173;29;20090;-59
2021/04/09 20:54:24;;;;;;;9.43;5.28;;;;;;;;;;10001420;29;20091;-59
2021/04/09 20:59:21;;;;;;;7.55;6.28;;;;;;;;;;10001339;29;20075;-60
2021/04/09 21:04:18;;;;;;;6.38;5.70;;;;;;;;;;9998241;29;20080;-58
2021/04/09 21:09:16;;;;;;;7.72;5.53;;;;;;;;;;10001594;29;20513;-60
2021/04/09 21:14:14;;;;;;;11.88;6.68;;;;;;;;;;10001615;29;20457;-60
2021/04/09 21:19:11;;;;;;;13.38;7.30;;;;;;;;;;10001241;29;20518;-59
2021/04/09 21:24:09;;;;;;;9.40;6.25;;;;;;;;;;10000695;29;20056;-60
2021/04/09 21:29:06;;;;;;;10.48;7.28;;;;;;;;;;9999896;29;20091;-60
2021/04/09 21:34:04;;;;;;;8.05;5.90;;;;;;;;;;10000778;29;20079;-60
2021/04/09 21:39:02;;;;;;;9.48;4.95;;;;;;;;;;10000252;29;20076;-59
2021/04/09 21:44:01;;;;;;;5.15;4.65;;;;;;;;;;9999623;29;20052;-59
2021/04/09 21:49:01;;;;;;;6.07;4.97;;;;;;;;;;10000345;29;20056;-60
2021/04/09 21:53:59;;;;;;;6.15;4.68;;;;;;;;;;9999960;29;20040;-60
2021/04/09 21:58:57;;;;;;;6.68;4.15;;;;;;;;;;9999862;29;20324;-60
2021/04/09 22:03:54;;;;;;;6.28;5.20;;;;;;;;;;9999811;29;20112;-60
2021/04/09 22:08:51;;;;;;;6.68;4.80;;;;;;;;;;9997729;29;20052;-61
2021/04/09 22:13:49;;;;;;;4.78;4.28;;;;;;;;;;9998396;29;20055;-60
2021/04/09 22:18:49;;;;;;;6.00;4.78;;;;;;;;;;9999531;29;20076;-61
2021/04/09 22:23:46;;;;;;;5.20;4.53;;;;;;;;;;9999301;29;20040;-60
2021/04/09 22:28:43;;;;;;;6.63;5.57;;;;;;;;;;9998951;29;20076;-60
2021/04/09 22:33:42;;;;;;;10.13;7.60;;;;;;;;;;9998756;29;20083;-61
2021/04/09 22:38:39;;;;;;;7.50;6.35;;;;;;;;;;9998403;29;20080;-61
2021/04/09 22:43:36;;;;;;;10.10;8.40;;;;;;;;;;9998798;29;20074;-59
2021/04/09 22:48:34;;;;;;;5.82;5.18;;;;;;;;;;9998675;29;20052;-60
2021/04/09 22:53:32;;;;;;;6.20;5.00;;;;;;;;;;9998886;29;20054;-60
2021/04/09 22:58:29;;;;;;;6.78;5.82;;;;;;;;;;9997911;29;20083;-60
2021/04/09 23:03:26;;;;;;;10.88;9.82;;;;;;;;;;9997539;29;20061;-60
2021/04/09 23:08:24;;;;;;;7.05;6.32;;;;;;;;;;9998577;29;20041;-60
2021/04/09 23:13:22;;;;;;;6.82;5.07;;;;;;;;;;9998482;29;20490;-60
2021/04/09 23:18:19;;;;;;;8.52;6.00;;;;;;;;;;9998193;29;20076;-59
2021/04/09 23:23:17;;;;;;;6.63;6.00;;;;;;;;;;9999145;29;20080;-60
2021/04/09 23:28:14;;;;;;;7.22;4.95;;;;;;;;;;10004463;29;20090;-60
2021/04/09 23:33:12;;;;;;;7.97;6.60;;;;;;;;;;10004666;29;20082;-60
2021/04/09 23:38:10;;;;;;;7.80;7.00;;;;;;;;;;10004860;29;20086;-60
2021/04/09 23:43:07;;;;;;;6.55;5.53;;;;;;;;;;10003777;29;20433;-60
2021/04/09 23:48:04;;;;;;;6.53;4.85;;;;;;;;;;10003923;29;20530;-60
2021/04/09 23:53:03;;;;;;;7.88;4.78;;;;;;;;;;10004294;29;20172;-60
2021/04/09 23:58:00;;;;;;;8.45;4.80;;;;;;;;;;10003732;29;20082;-58
